White Dolphin — 3EVO6 — position and weather

sailwx.info

Track history (hours):
 
Tides and Currents Weather Stations Pressure Air Temp Water Temp Dewpoint Dewpoint Depression Visibility Wind Speed Wind Dir Waves Ship Positions

White Dolphin

Last reported at 2018-Feb-21 17:07 UTC. Time now 2018-Feb-23 02:38 UTC.
Position N 34°05' E 132°50'.

Length 135 m; draft 6.4 m.

Type: Cargo ship. MMSI: 351817000.

Date/timePositionNaut miles runAvg speedWind from/ knotsBaromVisibWave heightAir tempDewpointWater temp
2018-Feb-21 17:07N 34°05' E 132°50'412.1
2018-Feb-21 16:48N 34°02' E 132°47'311.9
2018-Feb-21 16:30N 33°59' E 132°44'612.2
2018-Feb-21 16:00N 33°55' E 132°39'811.9
2018-Feb-21 15:22N 33°50' E 132°33'511.9
2018-Feb-21 14:58N 33°47' E 132°27'911.7
2018-Feb-21 14:12N 33°44' E 132°18'211.7
2018-Feb-21 14:00N 33°43' E 132°15'1610.9
2018-Feb-21 12:34N 33°44' E 131°56'110.6
2018-Feb-21 12:30N 33°44' E 131°55'510.8
2018-Feb-21 12:00N 33°45' E 131°49'510.8
2018-Feb-21 11:31N 33°45' E 131°43'510.8
2018-Feb-21 11:01N 33°47' E 131°36'510.9
2018-Feb-21 10:30N 33°48' E 131°30'611.0
2018-Feb-21 10:00N 33°49' E 131°23'611.2
2018-Feb-21 09:30N 33°50' E 131°17'611.4
2018-Feb-21 09:00N 33°52' E 131°10'611.6
2018-Feb-21 08:30N 33°55' E 131°05'510.8
2018-Feb-21 08:01N 33°58' E 130°59'510.4
2018-Feb-21 07:31N 33°54' E 130°55'510.4
2018-Feb-21 07:01N 33°58' E 130°50'5 9.5
2018-Feb-21 06:31N 34°02' E 130°47'510.2
2018-Feb-21 06:00N 34°03' E 130°41'5 9.4
2018-Feb-21 05:30N 34°01' E 130°36'5 9.8
2018-Feb-21 05:00N 33°59' E 130°30'5 9.7
2018-Feb-21 04:30N 33°58' E 130°25'5 9.3
2018-Feb-21 04:00N 33°56' E 130°20'5 9.2
2018-Feb-21 03:30N 33°55' E 130°14'510.5
2018-Feb-21 03:00N 33°58' E 130°09'510.6
2018-Feb-21 02:30N 34°01' E 130°04'  
2018-Feb-15 03:41N 34°03' E 130°01'211.3
2018-Feb-15 03:30N 34°03' E 130°04'611.3
2018-Feb-15 03:00N 34°03' E 130°11'611.3
2018-Feb-15 02:30N 34°03' E 130°17'611.4
2018-Feb-15 02:00N 34°03' E 130°24'611.4
2018-Feb-15 01:30N 34°02' E 130°31'611.0
2018-Feb-15 01:00N 34°02' E 130°38'611.4
2018-Feb-15 00:31N 34°02' E 130°45'510.4
2018-Feb-15 00:01N 34°00' E 130°50'611.9
2018-Feb-14 23:30N 33°55' E 130°54'611.6
2018-Feb-14 23:00N 33°59' E 130°59'510.3
2018-Feb-14 22:30N 33°56' E 131°05'612.3
2018-Feb-14 22:00N 33°53' E 131°11'612.6
2018-Feb-14 21:30N 33°51' E 131°18'612.6
2018-Feb-14 21:00N 33°49' E 131°25'612.4
2018-Feb-14 20:30N 33°48' E 131°33'712.5
2018-Feb-14 19:58N 33°47' E 131°40'612.3
2018-Feb-14 19:30N 33°46' E 131°47'2111.8
2018-Feb-14 17:41N 33°43' E 132°13'312.5
2018-Feb-14 17:28N 33°44' E 132°16'612.7
2018-Feb-14 16:58N 33°46' E 132°23'612.7
2018-Feb-14 16:30N 33°49' E 132°30'612.6
2018-Feb-14 16:00N 33°53' E 132°35'613.0
2018-Feb-14 15:30N 33°57' E 132°41'7710.7
2018-Feb-14 08:19N 34°26' E 134°08'512.0
2018-Feb-14 07:55N 34°25' E 134°13'511.5
2018-Feb-14 07:30N 34°24' E 134°19'611.5
2018-Feb-14 07:00N 34°26' E 134°25'611.4
2018-Feb-14 06:30N 34°28' E 134°32'510.9
2018-Feb-14 06:00N 34°30' E 134°38'510.9
2018-Feb-14 05:30N 34°33' E 134°44'510.6
2018-Feb-14 05:00N 34°35' E 134°50'5 9.4
2018-Feb-14 04:30N 34°36' E 134°55'5 9.4
2018-Feb-14 04:00N 34°38' E 135°01'5 9.5
2018-Feb-14 03:30N 34°36' E 135°06'611.2
2018-Feb-14 03:00N 34°34' E 135°13'611.4
2018-Feb-14 02:30N 34°34' E 135°19'510.6
2018-Feb-14 02:00N 34°33' E 135°26'0 0.6
2018-Feb-14 01:29N 34°34' E 135°26'0 0.0
2018-Feb-14 00:59N 34°34' E 135°26'0 0.0
2018-Feb-14 00:29N 34°34' E 135°26'0 0.0
2018-Feb-13 23:59N 34°34' E 135°26'0 0.0
2018-Feb-13 23:29N 34°34' E 135°26'0 0.0
2018-Feb-13 22:59N 34°34' E 135°26'0 0.3
2018-Feb-13 22:30N 34°33' E 135°26'2 3.5
2018-Feb-13 22:00N 34°33' E 135°24'2 3.0
2018-Feb-13 21:30N 34°34' E 135°23'0 0.0
2018-Feb-13 21:00N 34°34' E 135°23'0 0.0
2018-Feb-13 20:30N 34°34' E 135°23'0 0.0
2018-Feb-13 20:00N 34°34' E 135°23'0 0.0
2018-Feb-13 19:30N 34°34' E 135°23'0 0.0
2018-Feb-13 19:00N 34°34' E 135°23'0 0.0
2018-Feb-13 18:30N 34°34' E 135°23'0 0.0
2018-Feb-13 18:00N 34°34' E 135°23'0 0.0
2018-Feb-13 17:30N 34°34' E 135°23'0 0.0
2018-Feb-13 17:00N 34°34' E 135°23'0 0.0
2018-Feb-13 16:30N 34°34' E 135°23'0 0.0
2018-Feb-13 16:00N 34°34' E 135°23'0 0.8
2018-Feb-13 15:30N 34°34' E 135°22'4 7.8
2018-Feb-13 15:00N 34°34' E 135°18'611.4
2018-Feb-13 14:30N 34°34' E 135°11'612.1
2018-Feb-13 14:00N 34°36' E 135°04'611.5
2018-Feb-13 13:30N 34°36' E 134°57'611.9
2018-Feb-13 13:00N 34°34' E 134°50'611.5
2018-Feb-13 12:30N 34°31' E 134°44'611.3
2018-Feb-13 12:00N 34°29' E 134°37'611.2
2018-Feb-13 11:30N 34°27' E 134°31'611.3
2018-Feb-13 11:00N 34°25' E 134°25'1010.8
2018-Feb-13 10:04N 34°24' E 134°12'72 4.3
2018-Feb-12 17:28N 34°04' E 132°49'510.5
2018-Feb-12 17:00N 34°00' E 132°45'5 9.7
2018-Feb-12 16:30N 33°56' E 132°42'5 9.6
2018-Feb-12 16:00N 33°53' E 132°37'710.2
2018-Feb-12 15:17N 33°48' E 132°31'310.3
2018-Feb-12 15:00N 33°47' E 132°28'1210.5
2018-Feb-12 13:51N 33°42' E 132°14'1610.7
2018-Feb-12 12:19N 33°43' E 131°54'411.5
2018-Feb-12 12:00N 33°44' E 131°50'611.6
2018-Feb-12 11:30N 33°46' E 131°43'611.4
2018-Feb-12 11:00N 33°47' E 131°37'611.2
2018-Feb-12 10:30N 33°48' E 131°30'611.0
2018-Feb-12 10:00N 33°49' E 131°24'611.1
2018-Feb-12 09:31N 33°50' E 131°17'611.2
2018-Feb-12 09:00N 33°52' E 131°11'510.9
2018-Feb-12 08:31N 33°55' E 131°05'510.5
2018-Feb-12 08:00N 33°58' E 131°00'611.0
2018-Feb-12 07:30N 33°55' E 130°56'510.2
2018-Feb-12 07:00N 33°58' E 130°51'510.3
2018-Feb-12 06:30N 34°02' E 130°48'510.6
2018-Feb-12 06:00N 34°06' E 130°43'510.6
2018-Feb-12 05:30N 34°09' E 130°38'510.9
2018-Feb-12 05:01N 34°12' E 130°33'510.8
2018-Feb-12 04:30N 34°15' E 130°27'510.9
2018-Feb-12 04:00N 34°18' E 130°22'611.1
2018-Feb-12 03:30N 34°21' E 130°16'510.9
2018-Feb-12 03:00N 34°23' E 130°10'  
Track history (hours):
 
Tides and Currents Weather Stations Pressure Air Temp Water Temp Dewpoint Dewpoint Depression Visibility Wind Speed Wind Dir Waves Ship Positions

White Dolphin

Last reported at 2018-Feb-21 17:07 UTC. Time now 2018-Feb-23 02:38 UTC.
Position N 34°05' E 132°50'.

Length 135 m; draft 6.4 m.

Type: Cargo ship. MMSI: 351817000.

Date/timePositionNaut miles runAvg speedWind from/ knotsBaromVisibWave heightAir tempDewpointWater temp
2018-Feb-21 17:07N 34°05' E 132°50'412.1
2018-Feb-21 16:48N 34°02' E 132°47'311.9
2018-Feb-21 16:30N 33°59' E 132°44'612.2
2018-Feb-21 16:00N 33°55' E 132°39'811.9
2018-Feb-21 15:22N 33°50' E 132°33'511.9
2018-Feb-21 14:58N 33°47' E 132°27'911.7
2018-Feb-21 14:12N 33°44' E 132°18'211.7
2018-Feb-21 14:00N 33°43' E 132°15'1610.9
2018-Feb-21 12:34N 33°44' E 131°56'110.6
2018-Feb-21 12:30N 33°44' E 131°55'510.8
2018-Feb-21 12:00N 33°45' E 131°49'510.8
2018-Feb-21 11:31N 33°45' E 131°43'510.8
2018-Feb-21 11:01N 33°47' E 131°36'510.9
2018-Feb-21 10:30N 33°48' E 131°30'611.0
2018-Feb-21 10:00N 33°49' E 131°23'611.2
2018-Feb-21 09:30N 33°50' E 131°17'611.4
2018-Feb-21 09:00N 33°52' E 131°10'611.6
2018-Feb-21 08:30N 33°55' E 131°05'510.8
2018-Feb-21 08:01N 33°58' E 130°59'510.4
2018-Feb-21 07:31N 33°54' E 130°55'510.4
2018-Feb-21 07:01N 33°58' E 130°50'5 9.5
2018-Feb-21 06:31N 34°02' E 130°47'510.2
2018-Feb-21 06:00N 34°03' E 130°41'5 9.4
2018-Feb-21 05:30N 34°01' E 130°36'5 9.8
2018-Feb-21 05:00N 33°59' E 130°30'5 9.7
2018-Feb-21 04:30N 33°58' E 130°25'5 9.3
2018-Feb-21 04:00N 33°56' E 130°20'5 9.2
2018-Feb-21 03:30N 33°55' E 130°14'510.5
2018-Feb-21 03:00N 33°58' E 130°09'510.6
2018-Feb-21 02:30N 34°01' E 130°04'  
2018-Feb-15 03:41N 34°03' E 130°01'211.3
2018-Feb-15 03:30N 34°03' E 130°04'611.3
2018-Feb-15 03:00N 34°03' E 130°11'611.3
2018-Feb-15 02:30N 34°03' E 130°17'611.4
2018-Feb-15 02:00N 34°03' E 130°24'611.4
2018-Feb-15 01:30N 34°02' E 130°31'611.0
2018-Feb-15 01:00N 34°02' E 130°38'611.4
2018-Feb-15 00:31N 34°02' E 130°45'510.4
2018-Feb-15 00:01N 34°00' E 130°50'611.9
2018-Feb-14 23:30N 33°55' E 130°54'611.6
2018-Feb-14 23:00N 33°59' E 130°59'510.3
2018-Feb-14 22:30N 33°56' E 131°05'612.3
2018-Feb-14 22:00N 33°53' E 131°11'612.6
2018-Feb-14 21:30N 33°51' E 131°18'612.6
2018-Feb-14 21:00N 33°49' E 131°25'612.4
2018-Feb-14 20:30N 33°48' E 131°33'712.5
2018-Feb-14 19:58N 33°47' E 131°40'612.3
2018-Feb-14 19:30N 33°46' E 131°47'2111.8
2018-Feb-14 17:41N 33°43' E 132°13'312.5
2018-Feb-14 17:28N 33°44' E 132°16'612.7
2018-Feb-14 16:58N 33°46' E 132°23'612.7
2018-Feb-14 16:30N 33°49' E 132°30'612.6
2018-Feb-14 16:00N 33°53' E 132°35'613.0
2018-Feb-14 15:30N 33°57' E 132°41'7710.7
2018-Feb-14 08:19N 34°26' E 134°08'512.0
2018-Feb-14 07:55N 34°25' E 134°13'511.5
2018-Feb-14 07:30N 34°24' E 134°19'611.5
2018-Feb-14 07:00N 34°26' E 134°25'611.4
2018-Feb-14 06:30N 34°28' E 134°32'510.9
2018-Feb-14 06:00N 34°30' E 134°38'510.9
2018-Feb-14 05:30N 34°33' E 134°44'510.6
2018-Feb-14 05:00N 34°35' E 134°50'5 9.4
2018-Feb-14 04:30N 34°36' E 134°55'5 9.4
2018-Feb-14 04:00N 34°38' E 135°01'5 9.5
2018-Feb-14 03:30N 34°36' E 135°06'611.2
2018-Feb-14 03:00N 34°34' E 135°13'611.4
2018-Feb-14 02:30N 34°34' E 135°19'510.6
2018-Feb-14 02:00N 34°33' E 135°26'0 0.6
2018-Feb-14 01:29N 34°34' E 135°26'0 0.0
2018-Feb-14 00:59N 34°34' E 135°26'0 0.0
2018-Feb-14 00:29N 34°34' E 135°26'0 0.0
2018-Feb-13 23:59N 34°34' E 135°26'0 0.0
2018-Feb-13 23:29N 34°34' E 135°26'0 0.0
2018-Feb-13 22:59N 34°34' E 135°26'0 0.3
2018-Feb-13 22:30N 34°33' E 135°26'2 3.5
2018-Feb-13 22:00N 34°33' E 135°24'2 3.0
2018-Feb-13 21:30N 34°34' E 135°23'0 0.0
2018-Feb-13 21:00N 34°34' E 135°23'0 0.0
2018-Feb-13 20:30N 34°34' E 135°23'0 0.0
2018-Feb-13 20:00N 34°34' E 135°23'0 0.0
2018-Feb-13 19:30N 34°34' E 135°23'0 0.0
2018-Feb-13 19:00N 34°34' E 135°23'0 0.0
2018-Feb-13 18:30N 34°34' E 135°23'0 0.0
2018-Feb-13 18:00N 34°34' E 135°23'0 0.0
2018-Feb-13 17:30N 34°34' E 135°23'0 0.0
2018-Feb-13 17:00N 34°34' E 135°23'0 0.0
2018-Feb-13 16:30N 34°34' E 135°23'0 0.0
2018-Feb-13 16:00N 34°34' E 135°23'0 0.8
2018-Feb-13 15:30N 34°34' E 135°22'4 7.8
2018-Feb-13 15:00N 34°34' E 135°18'611.4
2018-Feb-13 14:30N 34°34' E 135°11'612.1
2018-Feb-13 14:00N 34°36' E 135°04'611.5
2018-Feb-13 13:30N 34°36' E 134°57'611.9
2018-Feb-13 13:00N 34°34' E 134°50'611.5
2018-Feb-13 12:30N 34°31' E 134°44'611.3
2018-Feb-13 12:00N 34°29' E 134°37'611.2
2018-Feb-13 11:30N 34°27' E 134°31'611.3
2018-Feb-13 11:00N 34°25' E 134°25'1010.8
2018-Feb-13 10:04N 34°24' E 134°12'72 4.3
2018-Feb-12 17:28N 34°04' E 132°49'510.5
2018-Feb-12 17:00N 34°00' E 132°45'5 9.7
2018-Feb-12 16:30N 33°56' E 132°42'5 9.6
2018-Feb-12 16:00N 33°53' E 132°37'710.2
2018-Feb-12 15:17N 33°48' E 132°31'310.3
2018-Feb-12 15:00N 33°47' E 132°28'1210.5
2018-Feb-12 13:51N 33°42' E 132°14'1610.7
2018-Feb-12 12:19N 33°43' E 131°54'411.5
2018-Feb-12 12:00N 33°44' E 131°50'611.6
2018-Feb-12 11:30N 33°46' E 131°43'611.4
2018-Feb-12 11:00N 33°47' E 131°37'611.2
2018-Feb-12 10:30N 33°48' E 131°30'611.0
2018-Feb-12 10:00N 33°49' E 131°24'611.1
2018-Feb-12 09:31N 33°50' E 131°17'611.2
2018-Feb-12 09:00N 33°52' E 131°11'510.9
2018-Feb-12 08:31N 33°55' E 131°05'510.5
2018-Feb-12 08:00N 33°58' E 131°00'611.0
2018-Feb-12 07:30N 33°55' E 130°56'510.2
2018-Feb-12 07:00N 33°58' E 130°51'510.3
2018-Feb-12 06:30N 34°02' E 130°48'510.6
2018-Feb-12 06:00N 34°06' E 130°43'510.6
2018-Feb-12 05:30N 34°09' E 130°38'510.9
2018-Feb-12 05:01N 34°12' E 130°33'510.8
2018-Feb-12 04:30N 34°15' E 130°27'510.9
2018-Feb-12 04:00N 34°18' E 130°22'611.1
2018-Feb-12 03:30N 34°21' E 130°16'510.9
2018-Feb-12 03:00N 34°23' E 130°10'  

Dump ship's entire track history